sensor_id;sensor_type;location;lat;lon;timestamp;temperature;humidity
1025;DHT22;501;48.214;11.350;2022-09-02T00:01:13;14.10;52.70
1025;DHT22;501;48.214;11.350;2022-09-02T00:03:39;14.10;52.20
1025;DHT22;501;48.214;11.350;2022-09-02T00:06:04;14.00;52.00
1025;DHT22;501;48.214;11.350;2022-09-02T00:08:30;14.00;52.60
1025;DHT22;501;48.214;11.350;2022-09-02T00:10:57;14.00;52.60
1025;DHT22;501;48.214;11.350;2022-09-02T00:13:23;13.90;52.60
1025;DHT22;501;48.214;11.350;2022-09-02T00:15:49;13.90;53.70
1025;DHT22;501;48.214;11.350;2022-09-02T00:18:16;13.90;54.10
1025;DHT22;501;48.214;11.350;2022-09-02T00:20:43;13.90;54.60
1025;DHT22;501;48.214;11.350;2022-09-02T00:23:10;13.90;54.30
1025;DHT22;501;48.214;11.350;2022-09-02T00:25:37;13.80;54.40
1025;DHT22;501;48.214;11.350;2022-09-02T00:28:04;13.80;53.90
1025;DHT22;501;48.214;11.350;2022-09-02T00:30:30;13.80;53.90
1025;DHT22;501;48.214;11.350;2022-09-02T00:32:57;13.80;53.70
1025;DHT22;501;48.214;11.350;2022-09-02T00:35:22;13.80;54.50
1025;DHT22;501;48.214;11.350;2022-09-02T00:37:48;13.70;55.30
1025;DHT22;501;48.214;11.350;2022-09-02T00:40:14;13.70;55.90
1025;DHT22;501;48.214;11.350;2022-09-02T00:42:40;13.70;55.80
1025;DHT22;501;48.214;11.350;2022-09-02T00:45:07;13.70;56.10
1025;DHT22;501;48.214;11.350;2022-09-02T00:47:33;13.70;56.20
1025;DHT22;501;48.214;11.350;2022-09-02T00:50:04;13.70;56.50
1025;DHT22;501;48.214;11.350;2022-09-02T00:52:38;13.70;56.30
1025;DHT22;501;48.214;11.350;2022-09-02T00:57:47;13.60;56.30
1025;DHT22;501;48.214;11.350;2022-09-02T01:00:21;13.60;56.10
1025;DHT22;501;48.214;11.350;2022-09-02T01:02:55;13.60;56.30
1025;DHT22;501;48.214;11.350;2022-09-02T01:05:22;13.60;56.20
1025;DHT22;501;48.214;11.350;2022-09-02T01:07:49;13.60;56.10
1025;DHT22;501;48.214;11.350;2022-09-02T01:10:22;13.60;55.90
1025;DHT22;501;48.214;11.350;2022-09-02T01:12:48;13.50;56.30
1025;DHT22;501;48.214;11.350;2022-09-02T01:15:14;13.50;56.20
1025;DHT22;501;48.214;11.350;2022-09-02T01:17:47;13.50;56.70
1025;DHT22;501;48.214;11.350;2022-09-02T01:20:16;13.50;57.20
1025;DHT22;501;48.214;11.350;2022-09-02T01:22:43;13.50;57.10
1025;DHT22;501;48.214;11.350;2022-09-02T01:25:19;13.40;57.00
1025;DHT22;501;48.214;11.350;2022-09-02T01:27:45;13.40;57.10
1025;DHT22;501;48.214;11.350;2022-09-02T01:30:18;13.40;56.90
1025;DHT22;501;48.214;11.350;2022-09-02T01:32:44;13.40;57.10
1025;DHT22;501;48.214;11.350;2022-09-02T01:35:10;13.40;56.70
1025;DHT22;501;48.214;11.350;2022-09-02T01:37:37;13.40;55.90
1025;DHT22;501;48.214;11.350;2022-09-02T01:40:11;13.40;55.90
1025;DHT22;501;48.214;11.350;2022-09-02T01:42:38;13.40;56.50
1025;DHT22;501;48.214;11.350;2022-09-02T01:45:05;13.40;56.90
1025;DHT22;501;48.214;11.350;2022-09-02T01:47:31;13.30;56.50
1025;DHT22;501;48.214;11.350;2022-09-02T01:49:57;13.30;56.30
1025;DHT22;501;48.214;11.350;2022-09-02T01:52:25;13.30;56.30
1025;DHT22;501;48.214;11.350;2022-09-02T01:54:51;13.20;56.40
1025;DHT22;501;48.214;11.350;2022-09-02T01:57:17;13.20;56.90
1025;DHT22;501;48.214;11.350;2022-09-02T01:59:43;13.20;57.10
1025;DHT22;501;48.214;11.350;2022-09-02T02:02:11;13.20;57.10
1025;DHT22;501;48.214;11.350;2022-09-02T02:04:37;13.10;56.70
1025;DHT22;501;48.214;11.350;2022-09-02T02:07:03;13.10;56.60
1025;DHT22;501;48.214;11.350;2022-09-02T02:09:28;13.10;56.60
1025;DHT22;501;48.214;11.350;2022-09-02T02:11:54;13.10;57.40
1025;DHT22;501;48.214;11.350;2022-09-02T02:14:20;13.00;57.90
1025;DHT22;501;48.214;11.350;2022-09-02T02:16:46;13.10;58.20
1025;DHT22;501;48.214;11.350;2022-09-02T02:19:12;13.00;57.90
1025;DHT22;501;48.214;11.350;2022-09-02T02:21:38;13.00;58.30
1025;DHT22;501;48.214;11.350;2022-09-02T02:24:04;13.00;58.20
1025;DHT22;501;48.214;11.350;2022-09-02T02:26:30;13.00;57.60
1025;DHT22;501;48.214;11.350;2022-09-02T02:28:56;13.00;56.30
1025;DHT22;501;48.214;11.350;2022-09-02T02:31:22;13.00;56.00
1025;DHT22;501;48.214;11.350;2022-09-02T02:33:49;13.00;56.20
1025;DHT22;501;48.214;11.350;2022-09-02T02:36:15;12.90;56.90
1025;DHT22;501;48.214;11.350;2022-09-02T02:38:41;12.90;58.00
1025;DHT22;501;48.214;11.350;2022-09-02T02:41:07;12.90;58.10
1025;DHT22;501;48.214;11.350;2022-09-02T02:43:34;12.90;58.30
1025;DHT22;501;48.214;11.350;2022-09-02T02:46:00;12.90;57.70
1025;DHT22;501;48.214;11.350;2022-09-02T02:48:26;12.90;56.60
1025;DHT22;501;48.214;11.350;2022-09-02T02:50:52;12.90;55.90
1025;DHT22;501;48.214;11.350;2022-09-02T02:53:17;12.80;55.80
1025;DHT22;501;48.214;11.350;2022-09-02T02:55:44;12.80;55.80
1025;DHT22;501;48.214;11.350;2022-09-02T02:58:10;12.80;56.60
1025;DHT22;501;48.214;11.350;2022-09-02T03:00:36;12.70;56.30
1025;DHT22;501;48.214;11.350;2022-09-02T03:03:05;12.70;56.50
1025;DHT22;501;48.214;11.350;2022-09-02T03:05:32;12.70;56.80
1025;DHT22;501;48.214;11.350;2022-09-02T03:08:00;12.70;57.00
1025;DHT22;501;48.214;11.350;2022-09-02T03:10:26;12.60;56.60
1025;DHT22;501;48.214;11.350;2022-09-02T03:12:52;12.60;56.50
1025;DHT22;501;48.214;11.350;2022-09-02T03:15:18;12.60;56.40
1025;DHT22;501;48.214;11.350;2022-09-02T03:17:46;12.60;56.40
1025;DHT22;501;48.214;11.350;2022-09-02T03:20:13;12.50;56.00
1025;DHT22;501;48.214;11.350;2022-09-02T03:22:44;12.50;56.00
1025;DHT22;501;48.214;11.350;2022-09-02T03:25:14;12.50;56.10
1025;DHT22;501;48.214;11.350;2022-09-02T03:27:41;12.40;56.70
1025;DHT22;501;48.214;11.350;2022-09-02T03:30:12;12.40;56.80
1025;DHT22;501;48.214;11.350;2022-09-02T03:32:38;12.40;57.10
1025;DHT22;501;48.214;11.350;2022-09-02T03:35:06;12.30;57.10
1025;DHT22;501;48.214;11.350;2022-09-02T03:37:33;12.30;57.50
1025;DHT22;501;48.214;11.350;2022-09-02T03:40:02;12.30;59.60
1025;DHT22;501;48.214;11.350;2022-09-02T03:42:28;12.30;60.00
1025;DHT22;501;48.214;11.350;2022-09-02T03:44:54;12.30;60.80
1025;DHT22;501;48.214;11.350;2022-09-02T03:47:19;12.30;59.70
1025;DHT22;501;48.214;11.350;2022-09-02T03:49:46;12.30;59.90
1025;DHT22;501;48.214;11.350;2022-09-02T03:52:12;12.30;60.20
1025;DHT22;501;48.214;11.350;2022-09-02T03:54:37;12.30;59.60
1025;DHT22;501;48.214;11.350;2022-09-02T03:57:04;12.30;59.60
1025;DHT22;501;48.214;11.350;2022-09-02T03:59:29;12.30;59.60
1025;DHT22;501;48.214;11.350;2022-09-02T04:01:56;12.20;59.50
1025;DHT22;501;48.214;11.350;2022-09-02T04:04:21;12.20;58.80
1025;DHT22;501;48.214;11.350;2022-09-02T04:06:47;12.20;58.80
1025;DHT22;501;48.214;11.350;2022-09-02T04:09:13;12.20;59.20
1025;DHT22;501;48.214;11.350;2022-09-02T04:11:39;12.20;59.50
1025;DHT22;501;48.214;11.350;2022-09-02T04:14:07;12.20;59.60
1025;DHT22;501;48.214;11.350;2022-09-02T04:23:17;12.20;61.40
1025;DHT22;501;48.214;11.350;2022-09-02T04:25:46;12.10;61.10
1025;DHT22;501;48.214;11.350;2022-09-02T04:28:12;12.10;60.70
1025;DHT22;501;48.214;11.350;2022-09-02T04:30:38;12.10;60.50
1025;DHT22;501;48.214;11.350;2022-09-02T04:33:04;12.10;60.70
1025;DHT22;501;48.214;11.350;2022-09-02T04:35:29;12.10;60.00
1025;DHT22;501;48.214;11.350;2022-09-02T04:37:55;12.10;59.90
1025;DHT22;501;48.214;11.350;2022-09-02T04:40:21;12.00;60.40
1025;DHT22;501;48.214;11.350;2022-09-02T04:42:47;12.00;60.80
1025;DHT22;501;48.214;11.350;2022-09-02T04:45:12;12.00;62.20
1025;DHT22;501;48.214;11.350;2022-09-02T04:47:38;12.00;62.90
1025;DHT22;501;48.214;11.350;2022-09-02T04:50:05;12.00;63.00
1025;DHT22;501;48.214;11.350;2022-09-02T04:52:30;12.00;63.20
1025;DHT22;501;48.214;11.350;2022-09-02T04:54:56;12.10;63.50
1025;DHT22;501;48.214;11.350;2022-09-02T04:57:22;12.10;63.60
1025;DHT22;501;48.214;11.350;2022-09-02T04:59:47;12.10;63.20
1025;DHT22;501;48.214;11.350;2022-09-02T05:02:13;12.10;63.60
1025;DHT22;501;48.214;11.350;2022-09-02T05:04:39;12.10;63.60
1025;DHT22;501;48.214;11.350;2022-09-02T05:07:05;12.10;63.60
1025;DHT22;501;48.214;11.350;2022-09-02T05:09:31;12.10;63.70
1025;DHT22;501;48.214;11.350;2022-09-02T05:11:57;12.10;63.70
1025;DHT22;501;48.214;11.350;2022-09-02T05:14:23;12.20;63.80
1025;DHT22;501;48.214;11.350;2022-09-02T05:16:50;12.20;64.10
1025;DHT22;501;48.214;11.350;2022-09-02T05:19:20;12.20;64.70
1025;DHT22;501;48.214;11.350;2022-09-02T05:21:48;12.20;65.30
1025;DHT22;501;48.214;11.350;2022-09-02T05:24:16;12.20;65.80
1025;DHT22;501;48.214;11.350;2022-09-02T05:26:42;12.20;66.60
1025;DHT22;501;48.214;11.350;2022-09-02T05:29:10;12.20;67.10
1025;DHT22;501;48.214;11.350;2022-09-02T05:31:37;12.20;67.50
1025;DHT22;501;48.214;11.350;2022-09-02T05:34:03;12.30;68.10
1025;DHT22;501;48.214;11.350;2022-09-02T05:36:29;12.30;68.20
1025;DHT22;501;48.214;11.350;2022-09-02T05:38:57;12.30;68.20
1025;DHT22;501;48.214;11.350;2022-09-02T05:41:24;12.30;68.60
1025;DHT22;501;48.214;11.350;2022-09-02T05:43:52;12.40;69.50
1025;DHT22;501;48.214;11.350;2022-09-02T05:46:20;12.40;69.10
1025;DHT22;501;48.214;11.350;2022-09-02T05:48:48;12.50;69.30
1025;DHT22;501;48.214;11.350;2022-09-02T05:51:42;12.50;69.00
1025;DHT22;501;48.214;11.350;2022-09-02T05:56:49;12.50;69.80
1025;DHT22;501;48.214;11.350;2022-09-02T05:59:15;12.60;70.20
1025;DHT22;501;48.214;11.350;2022-09-02T06:01:42;12.60;70.80
1025;DHT22;501;48.214;11.350;2022-09-02T06:04:08;12.70;70.90
1025;DHT22;501;48.214;11.350;2022-09-02T06:06:34;12.70;70.90
1025;DHT22;501;48.214;11.350;2022-09-02T06:09:04;12.80;70.80
1025;DHT22;501;48.214;11.350;2022-09-02T06:11:36;12.80;71.30
1025;DHT22;501;48.214;11.350;2022-09-02T06:14:07;12.90;71.40
1025;DHT22;501;48.214;11.350;2022-09-02T06:16:34;12.90;70.70
1025;DHT22;501;48.214;11.350;2022-09-02T06:19:00;13.00;71.00
1025;DHT22;501;48.214;11.350;2022-09-02T06:21:28;13.00;71.60
1025;DHT22;501;48.214;11.350;2022-09-02T06:23:54;13.10;71.60
1025;DHT22;501;48.214;11.350;2022-09-02T06:26:20;13.10;71.70
1025;DHT22;501;48.214;11.350;2022-09-02T06:28:46;13.20;71.70
1025;DHT22;501;48.214;11.350;2022-09-02T06:31:14;13.30;71.90
1025;DHT22;501;48.214;11.350;2022-09-02T06:33:41;13.30;71.00
1025;DHT22;501;48.214;11.350;2022-09-02T06:36:10;13.40;69.20
1025;DHT22;501;48.214;11.350;2022-09-02T06:38:42;13.50;70.10
1025;DHT22;501;48.214;11.350;2022-09-02T06:41:13;13.60;69.60
1025;DHT22;501;48.214;11.350;2022-09-02T06:43:39;13.60;69.90
1025;DHT22;501;48.214;11.350;2022-09-02T06:46:06;13.60;67.10
1025;DHT22;501;48.214;11.350;2022-09-02T06:48:31;13.70;66.20
1025;DHT22;501;48.214;11.350;2022-09-02T06:50:57;13.80;66.00
1025;DHT22;501;48.214;11.350;2022-09-02T06:53:23;13.80;66.50
1025;DHT22;501;48.214;11.350;2022-09-02T06:55:49;13.80;66.20
1025;DHT22;501;48.214;11.350;2022-09-02T06:58:15;13.90;65.80
1025;DHT22;501;48.214;11.350;2022-09-02T07:00:41;13.90;66.90
1025;DHT22;501;48.214;11.350;2022-09-02T07:03:08;14.00;67.50
1025;DHT22;501;48.214;11.350;2022-09-02T07:06:08;14.00;67.20
1025;DHT22;501;48.214;11.350;2022-09-02T07:08:38;14.10;65.30
1025;DHT22;501;48.214;11.350;2022-09-02T07:11:06;14.20;64.60
1025;DHT22;501;48.214;11.350;2022-09-02T07:13:33;14.30;65.00
1025;DHT22;501;48.214;11.350;2022-09-02T07:16:00;14.30;63.50
1025;DHT22;501;48.214;11.350;2022-09-02T07:18:26;14.40;62.40
1025;DHT22;501;48.214;11.350;2022-09-02T07:20:52;14.40;62.80
1025;DHT22;501;48.214;11.350;2022-09-02T07:23:19;14.50;61.60
1025;DHT22;501;48.214;11.350;2022-09-02T07:25:45;14.60;61.80
1025;DHT22;501;48.214;11.350;2022-09-02T07:28:11;14.60;62.00
1025;DHT22;501;48.214;11.350;2022-09-02T07:30:40;14.60;60.90
1025;DHT22;501;48.214;11.350;2022-09-02T07:33:06;14.70;61.70
1025;DHT22;501;48.214;11.350;2022-09-02T07:35:32;14.70;61.20
1025;DHT22;501;48.214;11.350;2022-09-02T07:37:58;14.80;60.90
1025;DHT22;501;48.214;11.350;2022-09-02T07:40:24;14.80;59.10
1025;DHT22;501;48.214;11.350;2022-09-02T07:42:50;14.90;58.50
1025;DHT22;501;48.214;11.350;2022-09-02T07:45:15;14.90;58.10
1025;DHT22;501;48.214;11.350;2022-09-02T07:47:41;15.00;59.20
1025;DHT22;501;48.214;11.350;2022-09-02T07:50:07;15.00;58.20
1025;DHT22;501;48.214;11.350;2022-09-02T07:52:33;15.10;57.70
1025;DHT22;501;48.214;11.350;2022-09-02T07:54:58;15.20;57.10
1025;DHT22;501;48.214;11.350;2022-09-02T07:57:24;15.20;57.00
1025;DHT22;501;48.214;11.350;2022-09-02T07:59:50;15.30;55.90
1025;DHT22;501;48.214;11.350;2022-09-02T08:02:16;15.30;55.10
1025;DHT22;501;48.214;11.350;2022-09-02T08:04:43;15.30;55.80
1025;DHT22;501;48.214;11.350;2022-09-02T08:07:09;15.40;56.60
1025;DHT22;501;48.214;11.350;2022-09-02T08:09:35;15.50;56.20
1025;DHT22;501;48.214;11.350;2022-09-02T08:12:01;15.50;54.60
1025;DHT22;501;48.214;11.350;2022-09-02T08:14:27;15.60;53.20
1025;DHT22;501;48.214;11.350;2022-09-02T08:16:55;15.60;53.10
1025;DHT22;501;48.214;11.350;2022-09-02T08:19:22;15.70;53.70
1025;DHT22;501;48.214;11.350;2022-09-02T08:21:48;15.80;51.70
1025;DHT22;501;48.214;11.350;2022-09-02T08:24:14;15.90;51.20
1025;DHT22;501;48.214;11.350;2022-09-02T08:26:40;15.90;53.20
1025;DHT22;501;48.214;11.350;2022-09-02T08:29:06;16.00;52.30
1025;DHT22;501;48.214;11.350;2022-09-02T08:31:33;16.10;49.50
1025;DHT22;501;48.214;11.350;2022-09-02T08:34:00;16.20;47.50
1025;DHT22;501;48.214;11.350;2022-09-02T08:36:26;16.20;47.10
1025;DHT22;501;48.214;11.350;2022-09-02T08:38:53;16.30;47.00
1025;DHT22;501;48.214;11.350;2022-09-02T08:41:24;16.30;45.30
1025;DHT22;501;48.214;11.350;2022-09-02T08:43:56;16.40;45.80
1025;DHT22;501;48.214;11.350;2022-09-02T08:46:25;16.40;46.20
1025;DHT22;501;48.214;11.350;2022-09-02T08:49:01;16.40;44.40
1025;DHT22;501;48.214;11.350;2022-09-02T08:56:41;16.70;43.80
1025;DHT22;501;48.214;11.350;2022-09-02T08:59:09;16.80;43.40
1025;DHT22;501;48.214;11.350;2022-09-02T09:01:50;16.80;40.40
1025;DHT22;501;48.214;11.350;2022-09-02T09:04:44;16.90;39.40
1025;DHT22;501;48.214;11.350;2022-09-02T09:07:21;17.00;41.70
1025;DHT22;501;48.214;11.350;2022-09-02T09:12:41;17.10;39.80
1025;DHT22;501;48.214;11.350;2022-09-02T09:18:07;17.20;39.70
1025;DHT22;501;48.214;11.350;2022-09-02T09:20:37;17.30;38.60
1025;DHT22;501;48.214;11.350;2022-09-02T09:25:52;17.40;39.10
1025;DHT22;501;48.214;11.350;2022-09-02T09:28:19;17.50;38.80
1025;DHT22;501;48.214;11.350;2022-09-02T09:30:45;17.50;37.90
1025;DHT22;501;48.214;11.350;2022-09-02T09:33:14;17.60;36.00
1025;DHT22;501;48.214;11.350;2022-09-02T09:35:53;17.70;35.90
1025;DHT22;501;48.214;11.350;2022-09-02T09:38:31;17.70;36.60
1025;DHT22;501;48.214;11.350;2022-09-02T09:41:29;17.80;34.60
1025;DHT22;501;48.214;11.350;2022-09-02T09:43:55;17.90;33.80
1025;DHT22;501;48.214;11.350;2022-09-02T09:46:28;17.90;32.30
1025;DHT22;501;48.214;11.350;2022-09-02T09:48:54;18.00;31.40
1025;DHT22;501;48.214;11.350;2022-09-02T09:51:20;18.00;32.30
1025;DHT22;501;48.214;11.350;2022-09-02T09:53:46;18.00;32.20
1025;DHT22;501;48.214;11.350;2022-09-02T10:08:59;18.40;31.60
1025;DHT22;501;48.214;11.350;2022-09-02T10:11:33;18.40;31.70
1025;DHT22;501;48.214;11.350;2022-09-02T10:14:09;18.50;32.10
1025;DHT22;501;48.214;11.350;2022-09-02T10:27:53;18.70;29.80
1025;DHT22;501;48.214;11.350;2022-09-02T10:30:22;18.80;29.90
1025;DHT22;501;48.214;11.350;2022-09-02T10:35:42;18.80;30.00
1025;DHT22;501;48.214;11.350;2022-09-02T10:46:23;19.00;30.00
1025;DHT22;501;48.214;11.350;2022-09-02T10:51:40;19.10;28.50
1025;DHT22;501;48.214;11.350;2022-09-02T10:59:46;19.20;29.20
1025;DHT22;501;48.214;11.350;2022-09-02T11:04:59;19.30;28.30
1025;DHT22;501;48.214;11.350;2022-09-02T11:07:40;19.30;27.30
1025;DHT22;501;48.214;11.350;2022-09-02T11:10:09;19.30;28.40
1025;DHT22;501;48.214;11.350;2022-09-02T11:12:39;19.30;28.40
1025;DHT22;501;48.214;11.350;2022-09-02T11:15:39;19.40;28.40
1025;DHT22;501;48.214;11.350;2022-09-02T11:21:12;19.40;28.90
1025;DHT22;501;48.214;11.350;2022-09-02T11:23:38;19.60;28.50
1025;DHT22;501;48.214;11.350;2022-09-02T11:26:34;19.60;28.90
1025;DHT22;501;48.214;11.350;2022-09-02T11:29:31;19.70;29.00
1025;DHT22;501;48.214;11.350;2022-09-02T11:32:16;19.70;29.40
1025;DHT22;501;48.214;11.350;2022-09-02T11:34:48;19.80;28.10
1025;DHT22;501;48.214;11.350;2022-09-02T11:37:48;19.90;28.20
1025;DHT22;501;48.214;11.350;2022-09-02T11:40:26;19.90;26.90
1025;DHT22;501;48.214;11.350;2022-09-02T11:51:43;20.20;29.20
1025;DHT22;501;48.214;11.350;2022-09-02T11:54:13;20.40;27.70
1025;DHT22;501;48.214;11.350;2022-09-02T11:56:43;20.50;30.90
1025;DHT22;501;48.214;11.350;2022-09-02T11:59:21;20.70;29.20
1025;DHT22;501;48.214;11.350;2022-09-02T12:01:53;21.00;27.20
1025;DHT22;501;48.214;11.350;2022-09-02T12:04:22;21.30;28.70
1025;DHT22;501;48.214;11.350;2022-09-02T12:09:52;21.90;26.20
1025;DHT22;501;48.214;11.350;2022-09-02T12:17:33;23.00;25.30
1025;DHT22;501;48.214;11.350;2022-09-02T12:20:04;23.30;26.50
1025;DHT22;501;48.214;11.350;2022-09-02T12:22:33;23.80;25.20
1025;DHT22;501;48.214;11.350;2022-09-02T12:25:48;24.20;25.70
1025;DHT22;501;48.214;11.350;2022-09-02T12:27:49;24.60;24.20
1025;DHT22;501;48.214;11.350;2022-09-02T12:33:41;25.50;23.20
1025;DHT22;501;48.214;11.350;2022-09-02T12:36:43;25.80;22.50
1025;DHT22;501;48.214;11.350;2022-09-02T12:38:54;26.10;23.00
1025;DHT22;501;48.214;11.350;2022-09-02T12:41:41;26.30;22.50
1025;DHT22;501;48.214;11.350;2022-09-02T12:44:21;26.60;21.50
1025;DHT22;501;48.214;11.350;2022-09-02T12:46:57;26.90;22.30
1025;DHT22;501;48.214;11.350;2022-09-02T12:49:36;27.10;22.70
1025;DHT22;501;48.214;11.350;2022-09-02T12:52:08;27.30;20.20
1025;DHT22;501;48.214;11.350;2022-09-02T12:54:39;27.50;19.80
1025;DHT22;501;48.214;11.350;2022-09-02T12:57:07;27.60;19.10
1025;DHT22;501;48.214;11.350;2022-09-02T12:59:36;27.70;19.90
1025;DHT22;501;48.214;11.350;2022-09-02T13:05:00;28.00;21.40
1025;DHT22;501;48.214;11.350;2022-09-02T13:10:36;28.30;20.70
1025;DHT22;501;48.214;11.350;2022-09-02T13:19:29;28.80;19.60
1025;DHT22;501;48.214;11.350;2022-09-02T13:21:57;28.90;18.90
1025;DHT22;501;48.214;11.350;2022-09-02T13:27:44;29.00;17.40
1025;DHT22;501;48.214;11.350;2022-09-02T13:33:06;29.00;19.20
1025;DHT22;501;48.214;11.350;2022-09-02T13:35:38;29.10;19.30
1025;DHT22;501;48.214;11.350;2022-09-02T13:38:06;29.20;17.90
1025;DHT22;501;48.214;11.350;2022-09-02T13:40:35;29.20;18.20
1025;DHT22;501;48.214;11.350;2022-09-02T13:43:16;29.20;17.60
1025;DHT22;501;48.214;11.350;2022-09-02T13:45:43;29.20;18.80
1025;DHT22;501;48.214;11.350;2022-09-02T13:48:10;29.20;17.40
1025;DHT22;501;48.214;11.350;2022-09-02T13:50:43;29.20;18.00
1025;DHT22;501;48.214;11.350;2022-09-02T13:53:34;29.30;17.30
1025;DHT22;501;48.214;11.350;2022-09-02T13:55:59;29.30;17.90
1025;DHT22;501;48.214;11.350;2022-09-02T14:00:55;29.30;17.30
1025;DHT22;501;48.214;11.350;2022-09-02T14:03:21;29.40;16.30
1025;DHT22;501;48.214;11.350;2022-09-02T14:05:50;29.50;17.20
1025;DHT22;501;48.214;11.350;2022-09-02T14:08:24;29.50;16.90
1025;DHT22;501;48.214;11.350;2022-09-02T14:10:53;29.60;17.50
1025;DHT22;501;48.214;11.350;2022-09-02T14:13:21;29.60;17.10
1025;DHT22;501;48.214;11.350;2022-09-02T14:15:47;29.60;16.80
1025;DHT22;501;48.214;11.350;2022-09-02T14:18:17;29.50;16.80
1025;DHT22;501;48.214;11.350;2022-09-02T14:21:17;29.50;17.00
1025;DHT22;501;48.214;11.350;2022-09-02T14:23:50;29.50;16.50
1025;DHT22;501;48.214;11.350;2022-09-02T14:26:31;29.50;16.60
1025;DHT22;501;48.214;11.350;2022-09-02T14:28:58;29.50;16.90
1025;DHT22;501;48.214;11.350;2022-09-02T14:31:27;29.50;17.40
1025;DHT22;501;48.214;11.350;2022-09-02T14:33:56;29.50;17.50
1025;DHT22;501;48.214;11.350;2022-09-02T14:38:53;29.50;16.70
1025;DHT22;501;48.214;11.350;2022-09-02T14:41:33;29.40;18.50
1025;DHT22;501;48.214;11.350;2022-09-02T14:44:12;29.40;16.90
1025;DHT22;501;48.214;11.350;2022-09-02T14:46:43;29.30;17.30
1025;DHT22;501;48.214;11.350;2022-09-02T14:49:30;29.20;16.90
1025;DHT22;501;48.214;11.350;2022-09-02T14:51:58;29.00;17.20
1025;DHT22;501;48.214;11.350;2022-09-02T14:54:49;28.90;16.60
1025;DHT22;501;48.214;11.350;2022-09-02T15:00:03;28.90;17.20
1025;DHT22;501;48.214;11.350;2022-09-02T15:02:33;29.00;17.20
1025;DHT22;501;48.214;11.350;2022-09-02T15:05:06;29.00;17.30
1025;DHT22;501;48.214;11.350;2022-09-02T15:07:32;28.90;17.10
1025;DHT22;501;48.214;11.350;2022-09-02T15:09:58;28.90;16.70
1025;DHT22;501;48.214;11.350;2022-09-02T15:12:30;28.80;16.40
1025;DHT22;501;48.214;11.350;2022-09-02T15:14:57;28.70;16.70
1025;DHT22;501;48.214;11.350;2022-09-02T15:17:23;28.50;16.90
1025;DHT22;501;48.214;11.350;2022-09-02T15:19:50;28.30;17.30
1025;DHT22;501;48.214;11.350;2022-09-02T15:22:16;28.20;16.80
1025;DHT22;501;48.214;11.350;2022-09-02T15:24:42;28.10;17.60
1025;DHT22;501;48.214;11.350;2022-09-02T15:27:09;28.00;16.90
1025;DHT22;501;48.214;11.350;2022-09-02T15:29:35;28.00;17.60
1025;DHT22;501;48.214;11.350;2022-09-02T15:32:01;28.00;17.40
1025;DHT22;501;48.214;11.350;2022-09-02T15:34:29;27.90;18.00
1025;DHT22;501;48.214;11.350;2022-09-02T15:36:55;27.60;17.30
1025;DHT22;501;48.214;11.350;2022-09-02T15:39:22;27.40;18.10
1025;DHT22;501;48.214;11.350;2022-09-02T15:41:48;27.10;18.40
1025;DHT22;501;48.214;11.350;2022-09-02T15:44:15;26.80;18.60
1025;DHT22;501;48.214;11.350;2022-09-02T15:46:42;26.60;19.60
1025;DHT22;501;48.214;11.350;2022-09-02T15:49:10;26.40;19.70
1025;DHT22;501;48.214;11.350;2022-09-02T15:51:36;26.10;20.00
1025;DHT22;501;48.214;11.350;2022-09-02T15:54:07;25.90;19.40
1025;DHT22;501;48.214;11.350;2022-09-02T15:56:35;25.60;21.10
1025;DHT22;501;48.214;11.350;2022-09-02T15:59:12;25.40;20.20
1025;DHT22;501;48.214;11.350;2022-09-02T16:01:40;25.20;20.70
1025;DHT22;501;48.214;11.350;2022-09-02T16:04:07;25.00;20.80
1025;DHT22;501;48.214;11.350;2022-09-02T16:06:35;24.70;20.60
1025;DHT22;501;48.214;11.350;2022-09-02T16:09:03;24.40;21.10
1025;DHT22;501;48.214;11.350;2022-09-02T16:11:28;24.20;21.60
1025;DHT22;501;48.214;11.350;2022-09-02T16:13:54;24.00;22.40
1025;DHT22;501;48.214;11.350;2022-09-02T16:16:20;23.90;22.80
1025;DHT22;501;48.214;11.350;2022-09-02T16:18:51;23.70;22.50
1025;DHT22;501;48.214;11.350;2022-09-02T16:21:19;23.50;22.50
1025;DHT22;501;48.214;11.350;2022-09-02T16:23:45;23.40;23.20
1025;DHT22;501;48.214;11.350;2022-09-02T16:28:46;23.20;23.40
1025;DHT22;501;48.214;11.350;2022-09-02T16:31:14;23.10;23.70
1025;DHT22;501;48.214;11.350;2022-09-02T16:33:42;23.00;24.00
1025;DHT22;501;48.214;11.350;2022-09-02T16:36:09;22.90;24.00
1025;DHT22;501;48.214;11.350;2022-09-02T16:38:35;22.80;24.90
1025;DHT22;501;48.214;11.350;2022-09-02T16:41:02;22.70;24.50
1025;DHT22;501;48.214;11.350;2022-09-02T16:43:31;22.60;24.30
1025;DHT22;501;48.214;11.350;2022-09-02T16:45:59;22.50;25.00
1025;DHT22;501;48.214;11.350;2022-09-02T16:48:30;22.40;25.60
1025;DHT22;501;48.214;11.350;2022-09-02T16:51:01;22.30;24.90
1025;DHT22;501;48.214;11.350;2022-09-02T16:53:27;22.20;25.40
1025;DHT22;501;48.214;11.350;2022-09-02T16:55:53;22.10;25.70
1025;DHT22;501;48.214;11.350;2022-09-02T16:58:19;22.00;25.50
1025;DHT22;501;48.214;11.350;2022-09-02T17:00:44;22.00;25.80
1025;DHT22;501;48.214;11.350;2022-09-02T17:03:11;21.90;25.60
1025;DHT22;501;48.214;11.350;2022-09-02T17:05:37;21.80;26.10
1025;DHT22;501;48.214;11.350;2022-09-02T17:08:04;21.70;26.50
1025;DHT22;501;48.214;11.350;2022-09-02T17:10:31;21.60;26.50
1025;DHT22;501;48.214;11.350;2022-09-02T17:12:58;21.50;26.50
1025;DHT22;501;48.214;11.350;2022-09-02T17:15:25;21.40;26.80
1025;DHT22;501;48.214;11.350;2022-09-02T17:17:51;21.30;26.70
1025;DHT22;501;48.214;11.350;2022-09-02T17:20:17;21.20;27.80
1025;DHT22;501;48.214;11.350;2022-09-02T17:22:42;21.10;27.90
1025;DHT22;501;48.214;11.350;2022-09-02T17:25:08;21.00;27.90
1025;DHT22;501;48.214;11.350;2022-09-02T17:27:34;20.90;28.40
1025;DHT22;501;48.214;11.350;2022-09-02T17:30:07;20.80;29.00
1025;DHT22;501;48.214;11.350;2022-09-02T17:32:38;20.70;28.40
1025;DHT22;501;48.214;11.350;2022-09-02T17:35:05;20.70;28.70
1025;DHT22;501;48.214;11.350;2022-09-02T17:37:32;20.60;28.10
1025;DHT22;501;48.214;11.350;2022-09-02T17:40:04;20.40;28.20
1025;DHT22;501;48.214;11.350;2022-09-02T17:42:30;20.30;29.00
1025;DHT22;501;48.214;11.350;2022-09-02T17:44:56;20.30;29.10
1025;DHT22;501;48.214;11.350;2022-09-02T17:47:22;20.20;29.40
1025;DHT22;501;48.214;11.350;2022-09-02T17:49:49;20.10;29.40
1025;DHT22;501;48.214;11.350;2022-09-02T17:52:20;20.00;29.10
1025;DHT22;501;48.214;11.350;2022-09-02T17:54:51;19.90;29.30
1025;DHT22;501;48.214;11.350;2022-09-02T18:00:12;19.80;29.90
1025;DHT22;501;48.214;11.350;2022-09-02T18:05:53;19.60;29.40
1025;DHT22;501;48.214;11.350;2022-09-02T18:10:54;19.40;30.20
1025;DHT22;501;48.214;11.350;2022-09-02T18:22:29;19.10;30.90
1025;DHT22;501;48.214;11.350;2022-09-02T18:30:45;18.90;31.90
1025;DHT22;501;48.214;11.350;2022-09-02T18:38:52;18.70;33.00
1025;DHT22;501;48.214;11.350;2022-09-02T18:44:38;18.50;32.30
1025;DHT22;501;48.214;11.350;2022-09-02T18:47:08;18.40;32.10
1025;DHT22;501;48.214;11.350;2022-09-02T18:49:37;18.40;32.90